sensor_id;sensor_type;location;lat;lon;timestamp;P1;durP1;ratioP1;P2;durP2;ratioP2
66633;SDS011;53546;52.184;5.596;2022-12-11T00:01:26;21.02;;;11.60;;
66633;SDS011;53546;52.184;5.596;2022-12-11T00:03:52;19.08;;;11.30;;
66633;SDS011;53546;52.184;5.596;2022-12-11T00:06:19;21.13;;;11.38;;
66633;SDS011;53546;52.184;5.596;2022-12-11T00:08:45;20.75;;;11.02;;
66633;SDS011;53546;52.184;5.596;2022-12-11T00:11:11;20.02;;;11.05;;
66633;SDS011;53546;52.184;5.596;2022-12-11T00:13:40;19.98;;;11.38;;
66633;SDS011;53546;52.184;5.596;2022-12-11T00:16:06;21.73;;;11.20;;
66633;SDS011;53546;52.184;5.596;2022-12-11T00:18:31;18.35;;;10.82;;
66633;SDS011;53546;52.184;5.596;2022-12-11T00:21:00;20.70;;;11.35;;
66633;SDS011;53546;52.184;5.596;2022-12-11T00:23:27;18.05;;;10.63;;
66633;SDS011;53546;52.184;5.596;2022-12-11T00:25:52;23.20;;;11.70;;
66633;SDS011;53546;52.184;5.596;2022-12-11T00:28:18;21.17;;;10.60;;
66633;SDS011;53546;52.184;5.596;2022-12-11T00:30:43;19.40;;;10.05;;
66633;SDS011;53546;52.184;5.596;2022-12-11T00:33:09;18.73;;;10.60;;
66633;SDS011;53546;52.184;5.596;2022-12-11T00:35:38;18.45;;;10.95;;
66633;SDS011;53546;52.184;5.596;2022-12-11T00:38:05;20.77;;;11.10;;
66633;SDS011;53546;52.184;5.596;2022-12-11T00:40:37;19.98;;;11.18;;
66633;SDS011;53546;52.184;5.596;2022-12-11T00:43:02;20.50;;;10.93;;
66633;SDS011;53546;52.184;5.596;2022-12-11T00:45:28;17.42;;;10.65;;
66633;SDS011;53546;52.184;5.596;2022-12-11T00:47:53;21.50;;;11.35;;
66633;SDS011;53546;52.184;5.596;2022-12-11T00:50:18;19.45;;;10.57;;
66633;SDS011;53546;52.184;5.596;2022-12-11T00:52:44;19.35;;;10.43;;
66633;SDS011;53546;52.184;5.596;2022-12-11T00:55:09;17.67;;;10.27;;
66633;SDS011;53546;52.184;5.596;2022-12-11T00:57:35;19.98;;;10.77;;
66633;SDS011;53546;52.184;5.596;2022-12-11T01:00:00;20.58;;;10.95;;
66633;SDS011;53546;52.184;5.596;2022-12-11T01:02:26;18.25;;;9.85;;
66633;SDS011;53546;52.184;5.596;2022-12-11T01:04:51;16.52;;;10.07;;
66633;SDS011;53546;52.184;5.596;2022-12-11T01:07:17;22.10;;;11.38;;
66633;SDS011;53546;52.184;5.596;2022-12-11T01:09:42;17.77;;;10.55;;
66633;SDS011;53546;52.184;5.596;2022-12-11T01:12:26;16.35;;;9.93;;
66633;SDS011;53546;52.184;5.596;2022-12-11T01:14:52;19.15;;;10.52;;
66633;SDS011;53546;52.184;5.596;2022-12-11T01:17:18;25.23;;;10.60;;
66633;SDS011;53546;52.184;5.596;2022-12-11T01:19:43;20.15;;;10.38;;
66633;SDS011;53546;52.184;5.596;2022-12-11T01:22:08;20.10;;;10.45;;
66633;SDS011;53546;52.184;5.596;2022-12-11T01:24:34;18.17;;;10.38;;
66633;SDS011;53546;52.184;5.596;2022-12-11T01:26:59;23.00;;;11.10;;
66633;SDS011;53546;52.184;5.596;2022-12-11T01:29:24;18.23;;;10.32;;
66633;SDS011;53546;52.184;5.596;2022-12-11T01:31:50;18.10;;;10.23;;
66633;SDS011;53546;52.184;5.596;2022-12-11T01:34:15;17.92;;;10.55;;
66633;SDS011;53546;52.184;5.596;2022-12-11T01:36:41;16.83;;;9.73;;
66633;SDS011;53546;52.184;5.596;2022-12-11T01:39:06;17.75;;;10.27;;
66633;SDS011;53546;52.184;5.596;2022-12-11T01:41:32;18.92;;;10.13;;
66633;SDS011;53546;52.184;5.596;2022-12-11T01:44:07;18.17;;;10.15;;
66633;SDS011;53546;52.184;5.596;2022-12-11T01:46:54;18.48;;;10.32;;
66633;SDS011;53546;52.184;5.596;2022-12-11T01:49:20;17.92;;;10.50;;
66633;SDS011;53546;52.184;5.596;2022-12-11T01:51:57;18.70;;;10.43;;
66633;SDS011;53546;52.184;5.596;2022-12-11T01:54:25;19.05;;;9.88;;
66633;SDS011;53546;52.184;5.596;2022-12-11T01:56:52;19.90;;;11.18;;
66633;SDS011;53546;52.184;5.596;2022-12-11T01:59:22;19.13;;;10.57;;
66633;SDS011;53546;52.184;5.596;2022-12-11T02:01:50;19.30;;;10.77;;
66633;SDS011;53546;52.184;5.596;2022-12-11T02:04:19;20.58;;;10.77;;
66633;SDS011;53546;52.184;5.596;2022-12-11T02:06:45;21.63;;;10.82;;
66633;SDS011;53546;52.184;5.596;2022-12-11T02:09:12;17.33;;;9.77;;
66633;SDS011;53546;52.184;5.596;2022-12-11T02:11:54;18.48;;;11.00;;
66633;SDS011;53546;52.184;5.596;2022-12-11T02:22:50;17.95;;;10.02;;
66633;SDS011;53546;52.184;5.596;2022-12-11T02:36:42;21.95;;;11.35;;
66633;SDS011;53546;52.184;5.596;2022-12-11T02:39:10;16.60;;;10.10;;
66633;SDS011;53546;52.184;5.596;2022-12-11T02:41:37;19.52;;;11.43;;
66633;SDS011;53546;52.184;5.596;2022-12-11T02:44:04;21.58;;;11.20;;
66633;SDS011;53546;52.184;5.596;2022-12-11T02:46:30;21.52;;;11.48;;
66633;SDS011;53546;52.184;5.596;2022-12-11T02:48:57;19.27;;;11.63;;
66633;SDS011;53546;52.184;5.596;2022-12-11T02:51:24;20.45;;;11.30;;
66633;SDS011;53546;52.184;5.596;2022-12-11T02:53:53;19.05;;;10.93;;
66633;SDS011;53546;52.184;5.596;2022-12-11T02:56:23;20.08;;;10.82;;
66633;SDS011;53546;52.184;5.596;2022-12-11T02:58:54;20.42;;;11.35;;
66633;SDS011;53546;52.184;5.596;2022-12-11T03:01:24;18.98;;;10.88;;
66633;SDS011;53546;52.184;5.596;2022-12-11T03:03:50;21.70;;;11.48;;
66633;SDS011;53546;52.184;5.596;2022-12-11T03:06:16;21.35;;;11.38;;
66633;SDS011;53546;52.184;5.596;2022-12-11T03:08:44;20.98;;;11.68;;
66633;SDS011;53546;52.184;5.596;2022-12-11T03:11:10;21.15;;;11.70;;
66633;SDS011;53546;52.184;5.596;2022-12-11T03:13:36;22.98;;;10.85;;
66633;SDS011;53546;52.184;5.596;2022-12-11T03:21:38;18.38;;;10.48;;
66633;SDS011;53546;52.184;5.596;2022-12-11T03:26:36;18.05;;;10.75;;
66633;SDS011;53546;52.184;5.596;2022-12-11T03:29:16;18.65;;;10.60;;
66633;SDS011;53546;52.184;5.596;2022-12-11T03:34:35;20.80;;;11.15;;
66633;SDS011;53546;52.184;5.596;2022-12-11T03:37:05;21.73;;;11.35;;
66633;SDS011;53546;52.184;5.596;2022-12-11T03:39:32;18.25;;;10.75;;
66633;SDS011;53546;52.184;5.596;2022-12-11T03:42:02;18.67;;;10.90;;
66633;SDS011;53546;52.184;5.596;2022-12-11T03:44:30;19.48;;;11.20;;
66633;SDS011;53546;52.184;5.596;2022-12-11T03:46:57;18.23;;;11.10;;
66633;SDS011;53546;52.184;5.596;2022-12-11T03:49:25;19.25;;;11.02;;
66633;SDS011;53546;52.184;5.596;2022-12-11T03:51:52;19.60;;;10.88;;
66633;SDS011;53546;52.184;5.596;2022-12-11T03:54:19;21.38;;;11.05;;
66633;SDS011;53546;52.184;5.596;2022-12-11T03:56:44;20.02;;;10.52;;
66633;SDS011;53546;52.184;5.596;2022-12-11T03:59:10;20.25;;;11.48;;
66633;SDS011;53546;52.184;5.596;2022-12-11T04:01:36;18.65;;;11.52;;
66633;SDS011;53546;52.184;5.596;2022-12-11T04:04:02;20.30;;;11.02;;
66633;SDS011;53546;52.184;5.596;2022-12-11T04:06:27;17.38;;;10.05;;
66633;SDS011;53546;52.184;5.596;2022-12-11T04:08:52;19.77;;;11.75;;
66633;SDS011;53546;52.184;5.596;2022-12-11T04:11:18;19.20;;;11.15;;
66633;SDS011;53546;52.184;5.596;2022-12-11T04:13:59;18.90;;;10.70;;
66633;SDS011;53546;52.184;5.596;2022-12-11T04:16:43;18.63;;;11.05;;
66633;SDS011;53546;52.184;5.596;2022-12-11T04:19:08;19.17;;;11.07;;
66633;SDS011;53546;52.184;5.596;2022-12-11T04:21:52;18.92;;;11.05;;
66633;SDS011;53546;52.184;5.596;2022-12-11T04:24:36;19.92;;;10.90;;
66633;SDS011;53546;52.184;5.596;2022-12-11T04:27:02;18.13;;;10.88;;
66633;SDS011;53546;52.184;5.596;2022-12-11T04:29:27;17.33;;;10.45;;
66633;SDS011;53546;52.184;5.596;2022-12-11T04:31:53;21.10;;;11.38;;
66633;SDS011;53546;52.184;5.596;2022-12-11T04:34:18;19.30;;;10.85;;
66633;SDS011;53546;52.184;5.596;2022-12-11T04:36:44;16.98;;;11.02;;
66633;SDS011;53546;52.184;5.596;2022-12-11T04:39:09;17.45;;;10.52;;
66633;SDS011;53546;52.184;5.596;2022-12-11T04:41:34;18.65;;;11.15;;
66633;SDS011;53546;52.184;5.596;2022-12-11T04:44:01;28.60;;;11.20;;
66633;SDS011;53546;52.184;5.596;2022-12-11T04:46:26;18.20;;;10.82;;
66633;SDS011;53546;52.184;5.596;2022-12-11T04:48:51;17.25;;;10.88;;
66633;SDS011;53546;52.184;5.596;2022-12-11T04:51:17;17.70;;;10.30;;
66633;SDS011;53546;52.184;5.596;2022-12-11T04:53:43;22.65;;;10.50;;
66633;SDS011;53546;52.184;5.596;2022-12-11T04:56:09;16.77;;;10.93;;
66633;SDS011;53546;52.184;5.596;2022-12-11T04:58:36;17.40;;;10.95;;
66633;SDS011;53546;52.184;5.596;2022-12-11T05:01:06;16.73;;;10.52;;
66633;SDS011;53546;52.184;5.596;2022-12-11T05:03:35;16.25;;;10.30;;
66633;SDS011;53546;52.184;5.596;2022-12-11T05:06:01;17.40;;;10.07;;
66633;SDS011;53546;52.184;5.596;2022-12-11T05:08:26;26.05;;;10.10;;
66633;SDS011;53546;52.184;5.596;2022-12-11T05:10:55;15.30;;;9.75;;
66633;SDS011;53546;52.184;5.596;2022-12-11T05:13:21;15.25;;;9.55;;
66633;SDS011;53546;52.184;5.596;2022-12-11T05:15:46;16.67;;;9.02;;
66633;SDS011;53546;52.184;5.596;2022-12-11T05:18:12;13.55;;;9.52;;
66633;SDS011;53546;52.184;5.596;2022-12-11T05:20:37;14.80;;;9.18;;
66633;SDS011;53546;52.184;5.596;2022-12-11T05:23:02;14.52;;;8.93;;
66633;SDS011;53546;52.184;5.596;2022-12-11T05:25:28;13.27;;;8.63;;
66633;SDS011;53546;52.184;5.596;2022-12-11T05:27:53;14.25;;;9.27;;
66633;SDS011;53546;52.184;5.596;2022-12-11T05:30:18;13.98;;;8.90;;
66633;SDS011;53546;52.184;5.596;2022-12-11T05:32:44;12.30;;;8.45;;
66633;SDS011;53546;52.184;5.596;2022-12-11T05:35:09;12.07;;;8.35;;
66633;SDS011;53546;52.184;5.596;2022-12-11T05:37:34;11.65;;;8.05;;
66633;SDS011;53546;52.184;5.596;2022-12-11T05:40:00;14.52;;;7.50;;
66633;SDS011;53546;52.184;5.596;2022-12-11T05:42:26;12.95;;;7.93;;
66633;SDS011;53546;52.184;5.596;2022-12-11T05:44:51;9.88;;;7.40;;
66633;SDS011;53546;52.184;5.596;2022-12-11T05:47:16;10.95;;;7.60;;
66633;SDS011;53546;52.184;5.596;2022-12-11T05:49:44;10.68;;;7.18;;
66633;SDS011;53546;52.184;5.596;2022-12-11T05:52:11;10.15;;;7.25;;
66633;SDS011;53546;52.184;5.596;2022-12-11T05:54:36;10.40;;;7.75;;
66633;SDS011;53546;52.184;5.596;2022-12-11T05:57:02;9.27;;;6.47;;
66633;SDS011;53546;52.184;5.596;2022-12-11T05:59:27;9.15;;;6.38;;
66633;SDS011;53546;52.184;5.596;2022-12-11T06:01:52;15.30;;;6.88;;
66633;SDS011;53546;52.184;5.596;2022-12-11T06:04:18;9.70;;;6.55;;
66633;SDS011;53546;52.184;5.596;2022-12-11T06:06:43;8.15;;;6.30;;
66633;SDS011;53546;52.184;5.596;2022-12-11T06:09:11;8.13;;;6.35;;
66633;SDS011;53546;52.184;5.596;2022-12-11T06:11:37;9.20;;;6.40;;
66633;SDS011;53546;52.184;5.596;2022-12-11T06:14:03;9.15;;;6.30;;
66633;SDS011;53546;52.184;5.596;2022-12-11T06:16:28;8.60;;;6.65;;
66633;SDS011;53546;52.184;5.596;2022-12-11T06:18:54;8.63;;;5.80;;
66633;SDS011;53546;52.184;5.596;2022-12-11T06:21:23;8.55;;;6.13;;
66633;SDS011;53546;52.184;5.596;2022-12-11T06:23:53;8.52;;;6.22;;
66633;SDS011;53546;52.184;5.596;2022-12-11T06:26:22;9.48;;;6.18;;
66633;SDS011;53546;52.184;5.596;2022-12-11T06:28:48;6.40;;;5.60;;
66633;SDS011;53546;52.184;5.596;2022-12-11T06:31:14;12.65;;;5.70;;
66633;SDS011;53546;52.184;5.596;2022-12-11T06:33:39;9.35;;;5.75;;
66633;SDS011;53546;52.184;5.596;2022-12-11T06:36:06;9.57;;;5.63;;
66633;SDS011;53546;52.184;5.596;2022-12-11T06:38:34;7.18;;;5.63;;
66633;SDS011;53546;52.184;5.596;2022-12-11T06:41:00;8.40;;;5.40;;
66633;SDS011;53546;52.184;5.596;2022-12-11T06:43:28;6.55;;;5.20;;
66633;SDS011;53546;52.184;5.596;2022-12-11T06:45:54;11.68;;;5.68;;
66633;SDS011;53546;52.184;5.596;2022-12-11T06:48:19;9.10;;;6.15;;
66633;SDS011;53546;52.184;5.596;2022-12-11T06:50:45;7.15;;;5.75;;
66633;SDS011;53546;52.184;5.596;2022-12-11T06:53:10;7.40;;;4.90;;
66633;SDS011;53546;52.184;5.596;2022-12-11T06:55:37;7.65;;;5.75;;
66633;SDS011;53546;52.184;5.596;2022-12-11T06:58:02;8.50;;;6.20;;
66633;SDS011;53546;52.184;5.596;2022-12-11T07:00:28;7.75;;;5.60;;
66633;SDS011;53546;52.184;5.596;2022-12-11T07:02:53;6.93;;;5.55;;
66633;SDS011;53546;52.184;5.596;2022-12-11T07:05:18;7.72;;;6.28;;
66633;SDS011;53546;52.184;5.596;2022-12-11T07:07:44;8.20;;;6.30;;
66633;SDS011;53546;52.184;5.596;2022-12-11T07:10:09;8.52;;;6.53;;
66633;SDS011;53546;52.184;5.596;2022-12-11T07:12:35;8.25;;;6.00;;
66633;SDS011;53546;52.184;5.596;2022-12-11T07:15:00;8.65;;;6.50;;
66633;SDS011;53546;52.184;5.596;2022-12-11T07:17:26;7.05;;;5.85;;
66633;SDS011;53546;52.184;5.596;2022-12-11T07:19:52;11.57;;;6.47;;
66633;SDS011;53546;52.184;5.596;2022-12-11T07:22:17;7.90;;;6.03;;
66633;SDS011;53546;52.184;5.596;2022-12-11T07:24:43;7.40;;;6.15;;
66633;SDS011;53546;52.184;5.596;2022-12-11T07:27:08;8.52;;;6.22;;
66633;SDS011;53546;52.184;5.596;2022-12-11T07:29:33;7.50;;;6.13;;
66633;SDS011;53546;52.184;5.596;2022-12-11T07:31:59;8.48;;;6.03;;
66633;SDS011;53546;52.184;5.596;2022-12-11T07:34:24;8.35;;;6.65;;
66633;SDS011;53546;52.184;5.596;2022-12-11T07:36:50;8.40;;;5.72;;
66633;SDS011;53546;52.184;5.596;2022-12-11T07:39:15;13.57;;;6.18;;
66633;SDS011;53546;52.184;5.596;2022-12-11T07:41:40;7.40;;;5.80;;
66633;SDS011;53546;52.184;5.596;2022-12-11T07:44:06;8.73;;;6.68;;
66633;SDS011;53546;52.184;5.596;2022-12-11T07:46:31;8.20;;;6.00;;
66633;SDS011;53546;52.184;5.596;2022-12-11T07:48:57;7.88;;;6.47;;
66633;SDS011;53546;52.184;5.596;2022-12-11T07:51:26;7.60;;;6.38;;
66633;SDS011;53546;52.184;5.596;2022-12-11T07:53:53;8.73;;;6.60;;
66633;SDS011;53546;52.184;5.596;2022-12-11T07:56:20;11.40;;;6.93;;
66633;SDS011;53546;52.184;5.596;2022-12-11T07:58:46;13.45;;;7.22;;
66633;SDS011;53546;52.184;5.596;2022-12-11T08:01:21;12.32;;;7.55;;
66633;SDS011;53546;52.184;5.596;2022-12-11T08:03:48;16.80;;;7.20;;
66633;SDS011;53546;52.184;5.596;2022-12-11T08:06:15;12.75;;;6.63;;
66633;SDS011;53546;52.184;5.596;2022-12-11T08:08:40;11.68;;;6.32;;
66633;SDS011;53546;52.184;5.596;2022-12-11T08:11:07;29.40;;;6.88;;
66633;SDS011;53546;52.184;5.596;2022-12-11T08:13:34;13.32;;;6.22;;
66633;SDS011;53546;52.184;5.596;2022-12-11T08:16:07;11.82;;;5.90;;
66633;SDS011;53546;52.184;5.596;2022-12-11T08:18:34;15.65;;;6.47;;
66633;SDS011;53546;52.184;5.596;2022-12-11T08:21:07;9.95;;;6.10;;
66633;SDS011;53546;52.184;5.596;2022-12-11T08:23:43;8.80;;;6.20;;
66633;SDS011;53546;52.184;5.596;2022-12-11T08:26:10;9.93;;;6.28;;
66633;SDS011;53546;52.184;5.596;2022-12-11T08:28:38;10.60;;;6.25;;
66633;SDS011;53546;52.184;5.596;2022-12-11T08:31:04;9.15;;;5.75;;
66633;SDS011;53546;52.184;5.596;2022-12-11T08:33:30;10.43;;;6.25;;
66633;SDS011;53546;52.184;5.596;2022-12-11T08:35:56;8.32;;;5.70;;
66633;SDS011;53546;52.184;5.596;2022-12-11T08:38:21;8.07;;;5.95;;
66633;SDS011;53546;52.184;5.596;2022-12-11T08:40:46;8.82;;;6.82;;
66633;SDS011;53546;52.184;5.596;2022-12-11T08:43:12;11.20;;;6.38;;
66633;SDS011;53546;52.184;5.596;2022-12-11T08:45:37;12.65;;;6.50;;
66633;SDS011;53546;52.184;5.596;2022-12-11T08:48:03;9.25;;;6.25;;
66633;SDS011;53546;52.184;5.596;2022-12-11T08:50:29;15.63;;;7.13;;
66633;SDS011;53546;52.184;5.596;2022-12-11T08:52:54;15.18;;;6.63;;
66633;SDS011;53546;52.184;5.596;2022-12-11T08:55:19;7.22;;;5.95;;
66633;SDS011;53546;52.184;5.596;2022-12-11T08:57:46;8.63;;;6.70;;
66633;SDS011;53546;52.184;5.596;2022-12-11T09:00:11;9.68;;;6.57;;
66633;SDS011;53546;52.184;5.596;2022-12-11T09:02:37;8.65;;;6.50;;
66633;SDS011;53546;52.184;5.596;2022-12-11T09:05:03;11.70;;;6.75;;
66633;SDS011;53546;52.184;5.596;2022-12-11T09:07:32;10.32;;;6.47;;
66633;SDS011;53546;52.184;5.596;2022-12-11T09:09:57;10.50;;;6.88;;
66633;SDS011;53546;52.184;5.596;2022-12-11T09:12:23;11.73;;;5.95;;
66633;SDS011;53546;52.184;5.596;2022-12-11T09:14:48;9.07;;;6.65;;
66633;SDS011;53546;52.184;5.596;2022-12-11T09:17:14;10.35;;;6.22;;
66633;SDS011;53546;52.184;5.596;2022-12-11T09:19:39;16.45;;;7.03;;
66633;SDS011;53546;52.184;5.596;2022-12-11T09:22:04;23.52;;;7.70;;
66633;SDS011;53546;52.184;5.596;2022-12-11T09:24:30;19.67;;;8.05;;
66633;SDS011;53546;52.184;5.596;2022-12-11T09:26:55;17.85;;;7.63;;
66633;SDS011;53546;52.184;5.596;2022-12-11T09:29:20;18.15;;;7.47;;
66633;SDS011;53546;52.184;5.596;2022-12-11T09:31:46;13.43;;;7.28;;
66633;SDS011;53546;52.184;5.596;2022-12-11T09:34:13;15.18;;;7.10;;
66633;SDS011;53546;52.184;5.596;2022-12-11T09:36:38;10.63;;;6.45;;
66633;SDS011;53546;52.184;5.596;2022-12-11T09:39:05;17.45;;;6.40;;
66633;SDS011;53546;52.184;5.596;2022-12-11T09:41:35;16.40;;;6.57;;
66633;SDS011;53546;52.184;5.596;2022-12-11T09:44:29;13.07;;;6.63;;
66633;SDS011;53546;52.184;5.596;2022-12-11T09:46:57;9.35;;;5.35;;
66633;SDS011;53546;52.184;5.596;2022-12-11T09:52:07;13.80;;;5.72;;
66633;SDS011;53546;52.184;5.596;2022-12-11T09:54:48;10.73;;;5.70;;
66633;SDS011;53546;52.184;5.596;2022-12-11T10:08:18;9.00;;;4.95;;
66633;SDS011;53546;52.184;5.596;2022-12-11T10:16:16;10.30;;;5.75;;
66633;SDS011;53546;52.184;5.596;2022-12-11T10:18:48;10.32;;;5.55;;
66633;SDS011;53546;52.184;5.596;2022-12-11T10:21:14;9.20;;;6.00;;
66633;SDS011;53546;52.184;5.596;2022-12-11T10:23:52;11.27;;;5.63;;
66633;SDS011;53546;52.184;5.596;2022-12-11T10:26:20;9.25;;;5.72;;
66633;SDS011;53546;52.184;5.596;2022-12-11T10:28:46;9.57;;;5.18;;
66633;SDS011;53546;52.184;5.596;2022-12-11T10:31:19;14.93;;;5.63;;
66633;SDS011;53546;52.184;5.596;2022-12-11T10:36:31;10.07;;;5.30;;
66633;SDS011;53546;52.184;5.596;2022-12-11T10:38:59;24.08;;;7.38;;
66633;SDS011;53546;52.184;5.596;2022-12-11T10:41:45;26.50;;;7.45;;
66633;SDS011;53546;52.184;5.596;2022-12-11T10:44:18;23.00;;;7.55;;
66633;SDS011;53546;52.184;5.596;2022-12-11T10:46:44;23.20;;;7.90;;
66633;SDS011;53546;52.184;5.596;2022-12-11T10:49:52;26.48;;;8.20;;
66633;SDS011;53546;52.184;5.596;2022-12-11T10:52:10;22.15;;;7.65;;
66633;SDS011;53546;52.184;5.596;2022-12-11T10:57:07;19.88;;;8.77;;
66633;SDS011;53546;52.184;5.596;2022-12-11T10:59:46;15.23;;;7.22;;
66633;SDS011;53546;52.184;5.596;2022-12-11T11:05:16;15.40;;;7.13;;
66633;SDS011;53546;52.184;5.596;2022-12-11T11:08:01;18.17;;;7.10;;
66633;SDS011;53546;52.184;5.596;2022-12-11T11:10:35;11.00;;;6.95;;
66633;SDS011;53546;52.184;5.596;2022-12-11T11:13:01;13.85;;;7.68;;
66633;SDS011;53546;52.184;5.596;2022-12-11T11:15:28;12.68;;;6.55;;
66633;SDS011;53546;52.184;5.596;2022-12-11T11:17:55;12.45;;;6.88;;
66633;SDS011;53546;52.184;5.596;2022-12-11T11:20:26;13.77;;;7.10;;
66633;SDS011;53546;52.184;5.596;2022-12-11T11:22:56;13.68;;;7.05;;
66633;SDS011;53546;52.184;5.596;2022-12-11T11:25:25;12.43;;;8.20;;
66633;SDS011;53546;52.184;5.596;2022-12-11T11:30:26;11.38;;;7.10;;
66633;SDS011;53546;52.184;5.596;2022-12-11T11:33:11;12.60;;;6.88;;
66633;SDS011;53546;52.184;5.596;2022-12-11T11:35:38;12.95;;;6.75;;
66633;SDS011;53546;52.184;5.596;2022-12-11T11:38:20;15.50;;;7.15;;
66633;SDS011;53546;52.184;5.596;2022-12-11T11:40:49;13.77;;;6.50;;
66633;SDS011;53546;52.184;5.596;2022-12-11T11:43:58;9.57;;;6.28;;
66633;SDS011;53546;52.184;5.596;2022-12-11T11:53:56;9.25;;;6.00;;
66633;SDS011;53546;52.184;5.596;2022-12-11T11:56:34;9.57;;;6.13;;
66633;SDS011;53546;52.184;5.596;2022-12-11T12:01:33;8.48;;;6.32;;
66633;SDS011;53546;52.184;5.596;2022-12-11T12:03:58;7.40;;;5.72;;
66633;SDS011;53546;52.184;5.596;2022-12-11T12:06:28;9.75;;;5.90;;
66633;SDS011;53546;52.184;5.596;2022-12-11T12:09:29;7.90;;;6.18;;
66633;SDS011;53546;52.184;5.596;2022-12-11T12:14:31;7.10;;;5.53;;
66633;SDS011;53546;52.184;5.596;2022-12-11T12:22:44;9.75;;;6.00;;
66633;SDS011;53546;52.184;5.596;2022-12-11T12:30:18;8.05;;;6.15;;
66633;SDS011;53546;52.184;5.596;2022-12-11T12:35:37;9.25;;;6.28;;
66633;SDS011;53546;52.184;5.596;2022-12-11T12:38:09;12.13;;;6.93;;
66633;SDS011;53546;52.184;5.596;2022-12-11T12:40:57;10.38;;;6.43;;
66633;SDS011;53546;52.184;5.596;2022-12-11T12:43:41;8.55;;;5.95;;
66633;SDS011;53546;52.184;5.596;2022-12-11T12:48:50;8.52;;;5.57;;
66633;SDS011;53546;52.184;5.596;2022-12-11T12:51:16;19.10;;;6.30;;
66633;SDS011;53546;52.184;5.596;2022-12-11T12:53:44;7.65;;;6.07;;
66633;SDS011;53546;52.184;5.596;2022-12-11T12:56:13;12.65;;;6.32;;
66633;SDS011;53546;52.184;5.596;2022-12-11T12:58:41;11.45;;;6.30;;
66633;SDS011;53546;52.184;5.596;2022-12-11T13:01:08;10.32;;;6.13;;
66633;SDS011;53546;52.184;5.596;2022-12-11T13:03:49;7.90;;;6.18;;
66633;SDS011;53546;52.184;5.596;2022-12-11T13:06:38;11.65;;;6.47;;
66633;SDS011;53546;52.184;5.596;2022-12-11T13:09:18;11.43;;;6.43;;
66633;SDS011;53546;52.184;5.596;2022-12-11T13:11:47;9.40;;;6.22;;
66633;SDS011;53546;52.184;5.596;2022-12-11T13:16:52;13.48;;;6.07;;
66633;SDS011;53546;52.184;5.596;2022-12-11T13:20:05;10.52;;;5.97;;
66633;SDS011;53546;52.184;5.596;2022-12-11T13:22:45;10.98;;;6.28;;
66633;SDS011;53546;52.184;5.596;2022-12-11T13:25:17;8.63;;;6.03;;
66633;SDS011;53546;52.184;5.596;2022-12-11T13:27:46;9.13;;;6.00;;
66633;SDS011;53546;52.184;5.596;2022-12-11T13:32:38;11.13;;;6.25;;
66633;SDS011;53546;52.184;5.596;2022-12-11T13:35:05;9.15;;;5.43;;
66633;SDS011;53546;52.184;5.596;2022-12-11T13:37:35;6.47;;;5.57;;
66633;SDS011;53546;52.184;5.596;2022-12-11T13:40:14;7.43;;;5.38;;
66633;SDS011;53546;52.184;5.596;2022-12-11T13:42:50;10.07;;;5.90;;
66633;SDS011;53546;52.184;5.596;2022-12-11T13:45:21;8.50;;;4.88;;
66633;SDS011;53546;52.184;5.596;2022-12-11T13:48:12;7.07;;;5.15;;
66633;SDS011;53546;52.184;5.596;2022-12-11T13:50:45;7.03;;;5.50;;
66633;SDS011;53546;52.184;5.596;2022-12-11T13:53:15;9.20;;;6.07;;
66633;SDS011;53546;52.184;5.596;2022-12-11T13:55:41;7.20;;;6.00;;
66633;SDS011;53546;52.184;5.596;2022-12-11T13:58:14;11.40;;;5.70;;
66633;SDS011;53546;52.184;5.596;2022-12-11T14:00:42;10.43;;;5.90;;
66633;SDS011;53546;52.184;5.596;2022-12-11T14:03:18;12.85;;;5.30;;
66633;SDS011;53546;52.184;5.596;2022-12-11T14:05:43;11.45;;;6.32;;
66633;SDS011;53546;52.184;5.596;2022-12-11T14:08:09;8.43;;;6.05;;
66633;SDS011;53546;52.184;5.596;2022-12-11T14:10:41;17.20;;;7.43;;
66633;SDS011;53546;52.184;5.596;2022-12-11T14:13:26;31.70;;;9.18;;
66633;SDS011;53546;52.184;5.596;2022-12-11T14:15:55;27.00;;;9.75;;
66633;SDS011;53546;52.184;5.596;2022-12-11T14:18:26;31.98;;;10.18;;
66633;SDS011;53546;52.184;5.596;2022-12-11T14:20:55;25.37;;;9.10;;
66633;SDS011;53546;52.184;5.596;2022-12-11T14:23:26;21.50;;;9.15;;
66633;SDS011;53546;52.184;5.596;2022-12-11T14:26:03;26.58;;;9.23;;
66633;SDS011;53546;52.184;5.596;2022-12-11T14:28:40;38.08;;;10.25;;
66633;SDS011;53546;52.184;5.596;2022-12-11T14:31:06;26.95;;;9.10;;
66633;SDS011;53546;52.184;5.596;2022-12-11T14:33:33;34.47;;;10.02;;
66633;SDS011;53546;52.184;5.596;2022-12-11T14:36:01;25.35;;;9.35;;
66633;SDS011;53546;52.184;5.596;2022-12-11T14:38:32;23.88;;;9.27;;
66633;SDS011;53546;52.184;5.596;2022-12-11T14:41:04;22.15;;;9.40;;
66633;SDS011;53546;52.184;5.596;2022-12-11T14:43:36;19.85;;;9.55;;
66633;SDS011;53546;52.184;5.596;2022-12-11T14:46:10;31.80;;;10.13;;
66633;SDS011;53546;52.184;5.596;2022-12-11T14:48:45;18.98;;;8.90;;
66633;SDS011;53546;52.184;5.596;2022-12-11T14:51:16;18.08;;;8.35;;
66633;SDS011;53546;52.184;5.596;2022-12-11T14:53:43;17.70;;;8.63;;
66633;SDS011;53546;52.184;5.596;2022-12-11T14:56:15;20.10;;;8.65;;
66633;SDS011;53546;52.184;5.596;2022-12-11T14:58:50;18.90;;;8.63;;
66633;SDS011;53546;52.184;5.596;2022-12-11T15:01:24;25.67;;;9.20;;
66633;SDS011;53546;52.184;5.596;2022-12-11T15:04:00;19.65;;;8.80;;
66633;SDS011;53546;52.184;5.596;2022-12-11T15:06:52;18.35;;;8.20;;
66633;SDS011;53546;52.184;5.596;2022-12-11T15:09:24;18.67;;;8.55;;
66633;SDS011;53546;52.184;5.596;2022-12-11T15:11:55;14.25;;;7.88;;
66633;SDS011;53546;52.184;5.596;2022-12-11T15:14:21;14.73;;;8.48;;
66633;SDS011;53546;52.184;5.596;2022-12-11T15:16:48;16.67;;;8.02;;
66633;SDS011;53546;52.184;5.596;2022-12-11T15:19:22;16.17;;;8.35;;
66633;SDS011;53546;52.184;5.596;2022-12-11T15:21:59;14.05;;;7.95;;
66633;SDS011;53546;52.184;5.596;2022-12-11T15:24:29;11.27;;;7.72;;
66633;SDS011;53546;52.184;5.596;2022-12-11T15:27:05;14.88;;;7.72;;
66633;SDS011;53546;52.184;5.596;2022-12-11T15:31:59;11.43;;;7.35;;
66633;SDS011;53546;52.184;5.596;2022-12-11T15:34:50;11.82;;;7.30;;
66633;SDS011;53546;52.184;5.596;2022-12-11T15:39:46;10.23;;;7.20;;
66633;SDS011;53546;52.184;5.596;2022-12-11T15:42:15;11.65;;;7.78;;
66633;SDS011;53546;52.184;5.596;2022-12-11T15:44:45;14.20;;;7.63;;
66633;SDS011;53546;52.184;5.596;2022-12-11T15:47:11;9.88;;;6.68;;
66633;SDS011;53546;52.184;5.596;2022-12-11T15:49:37;10.70;;;7.32;;
66633;SDS011;53546;52.184;5.596;2022-12-11T15:52:03;10.68;;;7.43;;
66633;SDS011;53546;52.184;5.596;2022-12-11T15:54:28;10.70;;;7.55;;
66633;SDS011;53546;52.184;5.596;2022-12-11T15:56:54;11.70;;;8.23;;
66633;SDS011;53546;52.184;5.596;2022-12-11T15:59:19;10.02;;;7.22;;
66633;SDS011;53546;52.184;5.596;2022-12-11T16:01:45;10.75;;;7.28;;
66633;SDS011;53546;52.184;5.596;2022-12-11T16:04:10;12.30;;;7.43;;
66633;SDS011;53546;52.184;5.596;2022-12-11T16:06:35;13.40;;;7.90;;
66633;SDS011;53546;52.184;5.596;2022-12-11T16:09:02;10.07;;;7.43;;
66633;SDS011;53546;52.184;5.596;2022-12-11T16:11:29;10.60;;;7.63;;
66633;SDS011;53546;52.184;5.596;2022-12-11T16:13:54;10.38;;;7.85;;
66633;SDS011;53546;52.184;5.596;2022-12-11T16:16:19;11.98;;;7.50;;
66633;SDS011;53546;52.184;5.596;2022-12-11T16:18:45;12.20;;;7.75;;
66633;SDS011;53546;52.184;5.596;2022-12-11T16:21:10;10.68;;;7.18;;
66633;SDS011;53546;52.184;5.596;2022-12-11T16:23:35;10.00;;;7.35;;